Time;durP1;ratioP1;P1;durP2;ratioP2;P2;SDS_P1;SDS_P2;PMS_P1;PMS_P2;Temp;Humidity;BMP_temperature;BMP_pressure;BME280_temperature;BME280_humidity;BME280_pressure;Samples;Min_cycle;Max_cycle;Signal;HPM_P1;HPM_P2
2023/07/14 00:01:19;0.00;0.00;0.62;0.00;0.00;0.62;3.00;2.17;;;31.70;24.30;;;;;;2224352;62;20385;-64
2023/07/14 00:04:11;0.00;0.00;0.62;0.00;0.00;0.62;2.47;1.90;;;31.70;24.30;;;;;;2224828;62;20389;-63
2023/07/14 00:06:56;0.00;0.00;0.62;0.00;0.00;0.62;2.10;1.90;;;31.70;24.30;;;;;;2224976;62;20808;-63
2023/07/14 00:09:42;0.00;0.00;0.62;0.00;0.00;0.62;2.70;2.13;;;31.60;24.30;;;;;;2223652;62;20428;-63
2023/07/14 00:12:27;0.00;0.00;0.62;0.00;0.00;0.62;2.37;2.00;;;31.70;24.30;;;;;;2225186;62;20750;-63
2023/07/14 00:15:15;0.00;0.00;0.62;0.00;0.00;0.62;2.40;2.00;;;31.70;24.30;;;;;;2224078;62;20389;-63
2023/07/14 00:18:16;0.00;0.00;0.62;0.00;0.00;0.62;2.90;2.07;;;31.70;24.30;;;;;;2225058;62;20454;-63
2023/07/14 00:21:01;0.00;0.00;0.62;0.00;0.00;0.62;3.57;2.20;;;31.60;24.30;;;;;;2225021;62;20665;-63
2023/07/14 00:23:45;0.00;0.00;0.62;0.00;0.00;0.62;2.23;2.00;;;31.60;24.30;;;;;;2224225;62;20817;-63
2023/07/14 00:26:30;0.00;0.00;0.62;0.00;0.00;0.62;3.30;1.90;;;31.70;24.30;;;;;;2224761;62;20920;-62
2023/07/14 00:29:34;0.00;0.00;0.62;0.00;0.00;0.62;2.57;2.30;;;31.60;24.30;;;;;;2223911;62;20369;-63
2023/07/14 00:32:22;0.00;0.00;0.62;0.00;0.00;0.62;2.60;1.70;;;31.60;24.30;;;;;;2224520;62;20364;-63
2023/07/14 00:35:21;0.00;0.00;0.62;0.00;0.00;0.62;2.23;1.60;;;31.60;24.30;;;;;;2224244;62;20421;-63
2023/07/14 00:38:07;0.00;0.00;0.62;0.00;0.00;0.62;2.27;1.90;;;31.60;24.30;;;;;;2223659;62;20369;-63
2023/07/14 00:40:53;0.00;0.00;0.62;0.00;0.00;0.62;2.10;1.57;;;31.60;24.30;;;;;;2224442;62;20426;-63
2023/07/14 00:43:38;0.00;0.00;0.62;0.00;0.00;0.62;2.73;2.10;;;31.60;24.30;;;;;;2224478;62;20412;-63
2023/07/14 00:46:27;0.00;0.00;0.62;0.00;0.00;0.62;2.40;1.90;;;31.60;24.30;;;;;;2223929;62;20426;-63
2023/07/14 00:49:32;0.00;0.00;0.62;0.00;0.00;0.62;3.13;2.00;;;31.60;24.30;;;;;;2224078;62;20434;-63
2023/07/14 00:52:24;0.00;0.00;0.62;0.00;0.00;0.62;3.23;2.13;;;31.60;24.30;;;;;;2224724;62;20924;-63
2023/07/14 00:55:30;0.00;0.00;0.62;0.00;0.00;0.62;2.10;1.80;;;31.60;24.30;;;;;;2224835;62;20388;-63
2023/07/14 00:58:19;0.00;0.00;0.62;0.00;0.00;0.62;2.80;2.10;;;31.60;24.30;;;;;;2224413;62;20797;-62
2023/07/14 01:01:10;0.00;0.00;0.62;0.00;0.00;0.62;2.07;1.83;;;31.60;24.30;;;;;;2224235;62;20952;-63
2023/07/14 01:03:59;0.00;0.00;0.62;0.00;0.00;0.62;2.73;1.93;;;31.60;24.30;;;;;;2224380;62;20402;-63
2023/07/14 01:06:45;0.00;0.00;0.62;0.00;0.00;0.62;2.10;1.80;;;31.50;24.30;;;;;;2224340;62;20375;-63
2023/07/14 01:09:31;0.00;0.00;0.62;0.00;0.00;0.62;2.03;1.80;;;31.50;24.30;;;;;;2223731;62;20373;-63
2023/07/14 01:12:20;0.00;0.00;0.62;0.00;0.00;0.62;2.00;1.50;;;31.60;24.30;;;;;;2224315;62;20392;-63
2023/07/14 01:15:07;0.00;0.00;0.62;0.00;0.00;0.62;1.87;1.63;;;31.50;24.30;;;;;;2224114;62;20446;-63
2023/07/14 01:17:53;0.00;0.00;0.62;0.00;0.00;0.62;2.67;1.53;;;31.50;24.30;;;;;;2224313;62;20418;-63
2023/07/14 01:20:39;0.00;0.00;0.62;0.00;0.00;0.62;2.00;1.80;;;31.50;24.30;;;;;;2223893;62;20941;-63
2023/07/14 01:23:45;0.00;0.00;0.62;0.00;0.00;0.62;2.30;1.77;;;31.50;24.30;;;;;;2223967;62;20397;-63
2023/07/14 01:27:04;0.00;0.00;0.62;0.00;0.00;0.62;2.00;1.53;;;31.50;24.30;;;;;;2224379;62;20373;-63
2023/07/14 01:29:50;0.00;0.00;0.62;0.00;0.00;0.62;2.87;2.10;;;31.50;24.30;;;;;;2223768;62;20369;-63
2023/07/14 01:32:37;0.00;0.00;0.62;0.00;0.00;0.62;2.63;1.80;;;31.50;24.80;;;;;;2224895;62;20373;-63
2023/07/14 01:35:29;0.00;0.00;0.62;0.00;0.00;0.62;2.50;2.00;;;31.50;24.30;;;;;;2224657;62;20388;-63
2023/07/14 01:38:14;0.00;0.00;0.62;0.00;0.00;0.62;1.83;1.63;;;31.40;24.30;;;;;;2224218;62;20373;-62
2023/07/14 01:41:00;0.00;0.00;0.62;0.00;0.00;0.62;2.03;1.67;;;31.50;24.80;;;;;;2225393;62;20952;-63
2023/07/14 01:43:47;0.00;0.00;0.62;0.00;0.00;0.62;2.20;1.73;;;31.40;24.30;;;;;;2224673;62;20377;-63
2023/07/14 01:46:33;0.00;0.00;0.62;0.00;0.00;0.62;2.57;1.67;;;31.40;24.30;;;;;;2225090;62;20418;-63
2023/07/14 01:49:41;0.00;0.00;0.62;0.00;0.00;0.62;1.90;1.50;;;31.40;24.30;;;;;;2224864;62;20487;-63
2023/07/14 01:52:30;0.00;0.00;0.62;0.00;0.00;0.62;2.17;1.70;;;31.40;24.30;;;;;;2224310;62;20360;-63
2023/07/14 01:55:18;0.00;0.00;0.62;0.00;0.00;0.62;2.40;1.87;;;31.40;24.30;;;;;;2225389;62;20389;-63
2023/07/14 01:58:09;0.00;0.00;0.62;0.00;0.00;0.62;2.53;2.07;;;31.40;24.30;;;;;;2224826;62;20372;-63
2023/07/14 02:00:58;0.00;0.00;0.62;0.00;0.00;0.62;2.00;1.80;;;31.40;24.30;;;;;;2224754;62;20774;-63
2023/07/14 02:03:49;0.00;0.00;0.62;0.00;0.00;0.62;2.10;1.90;;;31.40;24.30;;;;;;2224881;62;20821;-63
2023/07/14 02:06:35;0.00;0.00;0.62;0.00;0.00;0.62;2.20;1.70;;;31.40;24.30;;;;;;2224752;62;20406;-63
2023/07/14 02:09:23;0.00;0.00;0.62;0.00;0.00;0.62;2.10;1.77;;;31.40;24.30;;;;;;2224322;62;20380;-63
2023/07/14 02:12:16;0.00;0.00;0.62;0.00;0.00;0.62;2.00;1.67;;;31.40;24.30;;;;;;2225080;62;20362;-63
2023/07/14 02:15:06;0.00;0.00;0.62;0.00;0.00;0.62;2.63;1.50;;;31.40;24.30;;;;;;2224310;62;20480;-63
2023/07/14 02:17:54;0.00;0.00;0.62;0.00;0.00;0.62;2.87;1.77;;;31.40;24.30;;;;;;2225315;62;20464;-63
2023/07/14 02:20:42;0.00;0.00;0.62;0.00;0.00;0.62;2.60;1.57;;;31.40;24.20;;;;;;2224554;62;20374;-63
2023/07/14 02:23:28;0.00;0.00;0.62;0.00;0.00;0.62;2.40;1.60;;;31.40;24.30;;;;;;2221805;62;20437;-63
2023/07/14 02:26:22;0.00;0.00;0.62;0.00;0.00;0.62;2.43;1.70;;;31.30;24.20;;;;;;2225250;62;20453;-63
2023/07/14 02:29:10;0.00;0.00;0.62;0.00;0.00;0.62;1.83;1.57;;;31.30;24.20;;;;;;2224171;62;20373;-63
2023/07/14 02:32:02;0.00;0.00;0.62;0.00;0.00;0.62;3.10;1.77;;;31.30;24.20;;;;;;2225294;62;20365;-63
2023/07/14 02:34:56;0.00;0.00;0.62;0.00;0.00;0.62;2.33;1.50;;;31.30;24.20;;;;;;2224842;62;20442;-63
2023/07/14 02:38:04;0.00;0.00;0.62;0.00;0.00;0.62;1.93;1.73;;;31.30;24.20;;;;;;2224219;62;20466;-63
2023/07/14 02:40:53;0.00;0.00;0.62;0.00;0.00;0.62;2.30;1.60;;;31.30;24.20;;;;;;2224608;62;20449;-63
2023/07/14 02:43:37;0.00;0.00;0.62;0.00;0.00;0.62;1.67;1.53;;;31.30;24.20;;;;;;2224362;62;20947;-63
2023/07/14 02:46:28;0.00;0.00;0.62;0.00;0.00;0.62;2.57;1.90;;;31.30;24.20;;;;;;2225133;62;20972;-67
2023/07/14 02:49:14;0.00;0.00;0.62;0.00;0.00;0.62;2.83;1.97;;;31.30;24.20;;;;;;2224697;62;20365;-63
2023/07/14 02:52:00;0.00;0.00;0.62;0.00;0.00;0.62;2.23;1.60;;;31.30;24.20;;;;;;2224571;62;20360;-63
2023/07/14 02:54:44;0.00;0.00;0.62;0.00;0.00;0.62;2.00;1.70;;;31.30;24.20;;;;;;2224932;62;20399;-63
2023/07/14 02:57:29;0.00;0.00;0.62;0.00;0.00;0.62;2.77;1.70;;;31.30;24.20;;;;;;2224933;62;20380;-63
2023/07/14 03:00:15;0.00;0.00;0.62;0.00;0.00;0.62;2.80;2.10;;;31.30;24.20;;;;;;2224219;62;20770;-63
2023/07/14 03:03:00;0.00;0.00;0.62;0.00;0.00;0.62;2.60;1.83;;;31.30;24.20;;;;;;2225377;62;20453;-64
2023/07/14 03:05:46;0.00;0.00;0.62;0.00;0.00;0.62;2.57;2.00;;;31.30;24.20;;;;;;2224146;62;20393;-63
2023/07/14 03:08:32;0.00;0.00;0.62;0.00;0.00;0.62;2.37;2.00;;;31.30;24.20;;;;;;2224437;62;20385;-63
2023/07/14 03:11:18;0.00;0.00;0.62;0.00;0.00;0.62;1.90;1.57;;;31.20;24.10;;;;;;2225134;62;20373;-63
2023/07/14 03:14:04;0.00;0.00;0.62;0.00;0.00;0.62;1.90;1.50;;;31.20;24.10;;;;;;2224172;62;20793;-63
2023/07/14 03:16:49;0.00;0.00;0.62;0.00;0.00;0.62;1.93;1.73;;;31.20;24.10;;;;;;2225402;62;20913;-64
2023/07/14 03:19:33;0.00;0.00;0.62;0.00;0.00;0.62;2.40;1.77;;;31.20;24.10;;;;;;2224224;62;20406;-62
2023/07/14 03:22:18;0.00;0.00;0.62;0.00;0.00;0.62;2.03;1.73;;;31.20;24.70;;;;;;2224132;62;20397;-63
2023/07/14 03:25:06;0.00;0.00;0.62;0.00;0.00;0.62;2.83;1.90;;;31.20;24.20;;;;;;2233368;56;20553;-63
2023/07/14 03:27:51;0.00;0.00;0.62;0.00;0.00;0.62;2.10;1.60;;;31.20;24.20;;;;;;2216968;62;20356;-63
2023/07/14 03:30:40;0.00;0.00;0.62;0.00;0.00;0.62;2.00;1.40;;;31.20;24.20;;;;;;2216421;62;20405;-63
2023/07/14 03:33:25;0.00;0.00;0.62;0.00;0.00;0.62;1.87;1.60;;;31.20;24.20;;;;;;2217181;62;20371;-63
2023/07/14 03:36:13;0.00;0.00;0.62;0.00;0.00;0.62;2.30;1.53;;;31.20;24.10;;;;;;2212760;62;20372;-63
2023/07/14 03:39:24;0.00;0.00;0.62;0.00;0.00;0.62;2.53;1.97;;;31.20;24.20;;;;;;2209789;62;20462;-63
2023/07/14 03:42:11;0.00;0.00;0.62;0.00;0.00;0.62;3.13;1.47;;;31.20;24.70;;;;;;2213031;62;20800;-63
2023/07/14 03:44:55;0.00;0.00;0.62;0.00;0.00;0.62;2.07;1.60;;;31.20;24.20;;;;;;2212746;62;20405;-62
2023/07/14 03:47:40;0.00;0.00;0.62;0.00;0.00;0.62;2.77;2.30;;;31.20;24.20;;;;;;2210408;62;20375;-63
2023/07/14 03:50:25;0.00;0.00;0.62;0.00;0.00;0.62;2.67;1.93;;;31.20;24.20;;;;;;2212263;62;20380;-63
2023/07/14 03:53:10;0.00;0.00;0.62;0.00;0.00;0.62;2.20;1.73;;;31.20;24.20;;;;;;2213402;62;20922;-63
2023/07/14 03:55:55;0.00;0.00;0.62;0.00;0.00;0.62;4.13;1.93;;;31.10;24.60;;;;;;2210235;62;20429;-63
2023/07/14 03:58:42;0.00;0.00;0.62;0.00;0.00;0.62;2.77;2.00;;;31.20;24.20;;;;;;2212391;62;20463;-63
2023/07/14 04:01:27;0.00;0.00;0.62;0.00;0.00;0.62;3.33;1.60;;;31.10;24.10;;;;;;2212960;62;20944;-63
2023/07/14 04:04:13;0.00;0.00;0.62;0.00;0.00;0.62;3.27;2.07;;;31.10;24.20;;;;;;2209761;62;20441;-63
2023/07/14 04:06:57;0.00;0.00;0.62;0.00;0.00;0.62;1.80;1.40;;;31.10;24.10;;;;;;2212936;62;20423;-63
2023/07/14 04:09:42;0.00;0.00;0.62;0.00;0.00;0.62;1.90;1.50;;;31.10;24.10;;;;;;2209590;62;20833;-63
2023/07/14 04:12:27;0.00;0.00;0.62;0.00;0.00;0.62;2.20;1.40;;;31.10;24.10;;;;;;2212574;62;20453;-62
2023/07/14 04:15:13;0.00;0.00;0.62;0.00;0.00;0.62;2.13;1.80;;;31.10;24.10;;;;;;2212917;62;20437;-62
2023/07/14 04:17:58;0.00;0.00;0.62;0.00;0.00;0.62;2.10;1.40;;;31.10;24.10;;;;;;2213196;62;20907;-63
2023/07/14 04:20:43;0.00;0.00;0.62;0.00;0.00;0.62;2.00;1.47;;;31.10;24.10;;;;;;2212517;62;20891;-63
2023/07/14 04:23:28;0.00;0.00;0.62;0.00;0.00;0.62;2.80;1.90;;;31.10;24.10;;;;;;2212687;62;20926;-63
2023/07/14 04:26:13;0.00;0.00;0.62;0.00;0.00;0.62;2.13;1.80;;;31.10;24.10;;;;;;2214101;62;20795;-63
2023/07/14 04:28:59;0.00;0.00;0.62;0.00;0.00;0.62;2.20;1.27;;;31.10;24.10;;;;;;2215977;62;20439;-63
2023/07/14 04:31:45;0.00;0.00;0.62;0.00;0.00;0.62;3.63;1.90;;;31.10;24.10;;;;;;2217199;62;20791;-64
2023/07/14 04:34:30;0.00;0.00;0.62;0.00;0.00;0.62;2.00;1.47;;;31.10;24.20;;;;;;2216287;62;20452;-63
2023/07/14 04:37:16;0.00;0.00;0.62;0.00;0.00;0.62;2.43;1.97;;;31.10;24.10;;;;;;2216916;62;20898;-63
2023/07/14 04:40:01;0.00;0.00;0.62;0.00;0.00;0.62;2.50;2.03;;;31.10;24.10;;;;;;2216640;62;20375;-63
2023/07/14 04:42:47;0.00;0.00;0.62;0.00;0.00;0.62;2.30;1.77;;;31.00;24.10;;;;;;2216153;62;20399;-63
2023/07/14 04:45:36;0.00;0.00;0.62;0.00;0.00;0.62;2.93;2.00;;;31.00;24.10;;;;;;2216893;62;20390;-63
2023/07/14 04:48:23;0.00;0.00;0.62;0.00;0.00;0.62;2.90;2.03;;;31.00;24.10;;;;;;2216248;62;20453;-62
2023/07/14 04:51:08;0.00;0.00;0.62;0.00;0.00;0.62;3.00;2.23;;;31.00;24.10;;;;;;2216589;62;20463;-63
2023/07/14 04:53:52;0.00;0.00;0.62;0.00;0.00;0.62;2.93;2.20;;;31.00;24.10;;;;;;2216918;62;20405;-63
2023/07/14 04:56:43;0.00;0.00;0.62;0.00;0.00;0.62;2.80;2.23;;;31.00;24.10;;;;;;2216519;62;20423;-63
2023/07/14 04:59:28;0.00;0.00;0.62;0.00;0.00;0.62;2.40;2.13;;;31.00;24.10;;;;;;2216257;62;20410;-63
2023/07/14 05:02:13;0.00;0.00;0.62;0.00;0.00;0.62;2.37;1.80;;;31.00;24.10;;;;;;2216884;62;20428;-63
2023/07/14 05:05:17;0.00;0.00;0.62;0.00;0.00;0.62;2.80;1.90;;;31.00;24.10;;;;;;2215921;62;20398;-62
2023/07/14 05:08:02;0.00;0.00;0.62;0.00;0.00;0.62;2.27;1.83;;;31.00;24.10;;;;;;2217065;62;20447;-63
2023/07/14 05:10:47;0.00;0.00;0.62;0.00;0.00;0.62;3.77;2.37;;;31.00;24.10;;;;;;2216492;62;20379;-63
2023/07/14 05:13:34;0.00;0.00;0.62;0.00;0.00;0.62;2.20;1.70;;;31.00;24.10;;;;;;2216499;62;20415;-63
2023/07/14 05:16:18;0.00;0.00;0.62;0.00;0.00;0.62;2.70;2.30;;;31.00;24.20;;;;;;2217320;62;20374;-63
2023/07/14 05:19:03;0.00;0.00;0.62;0.00;0.00;0.62;2.60;2.00;;;31.00;24.20;;;;;;2215684;62;20375;-63
2023/07/14 05:21:49;0.00;0.00;0.62;0.00;0.00;0.62;2.67;2.03;;;31.00;24.70;;;;;;2216880;62;20371;-63
2023/07/14 05:24:34;0.00;0.00;0.62;0.00;0.00;0.62;3.00;2.00;;;31.00;24.20;;;;;;2216752;62;20488;-63
2023/07/14 05:27:20;0.00;0.00;0.62;0.00;0.00;0.62;3.03;2.43;;;31.00;24.20;;;;;;2216232;62;20418;-63
2023/07/14 05:30:09;0.00;0.00;0.62;0.00;0.00;0.62;2.50;2.10;;;31.00;24.20;;;;;;2216651;62;20428;-63
2023/07/14 05:32:54;0.00;0.00;0.62;0.00;0.00;0.62;3.17;2.40;;;31.00;24.20;;;;;;2216535;62;20395;-64
2023/07/14 05:35:39;0.00;0.00;0.62;0.00;0.00;0.62;2.20;1.83;;;31.00;24.20;;;;;;2216367;62;20395;-63
2023/07/14 05:38:26;0.00;0.00;0.62;0.00;0.00;0.62;2.93;2.10;;;31.00;24.20;;;;;;2216315;62;20490;-62
2023/07/14 05:41:11;0.00;0.00;0.62;0.00;0.00;0.62;4.13;2.60;;;31.00;24.20;;;;;;2216021;62;20382;-62
2023/07/14 05:43:56;0.00;0.00;0.62;0.00;0.00;0.62;2.47;1.80;;;31.00;24.20;;;;;;2216711;62;20406;-63
2023/07/14 05:46:40;0.00;0.00;0.62;0.00;0.00;0.62;3.63;2.33;;;31.00;24.20;;;;;;2216490;62;20375;-62
2023/07/14 05:49:25;0.00;0.00;0.62;0.00;0.00;0.62;3.80;2.50;;;31.00;24.20;;;;;;2215613;62;20955;-63
2023/07/14 05:52:12;0.00;0.00;0.62;0.00;0.00;0.62;3.97;2.47;;;31.00;24.20;;;;;;2216248;62;20421;-63
2023/07/14 05:54:58;0.00;0.00;0.62;0.00;0.00;0.62;3.13;2.57;;;31.00;24.20;;;;;;2216344;62;20390;-63
2023/07/14 05:57:43;0.00;0.00;0.62;0.00;0.00;0.62;2.50;2.27;;;31.00;24.20;;;;;;2216495;62;20427;-63
2023/07/14 06:00:29;0.00;0.00;0.62;0.00;0.00;0.62;3.50;2.30;;;30.90;24.20;;;;;;2216308;62;20407;-63
2023/07/14 06:03:16;0.00;0.00;0.62;0.00;0.00;0.62;3.00;2.57;;;30.90;24.20;;;;;;2216212;62;20399;-63
2023/07/14 06:06:05;0.00;0.00;0.62;0.00;0.00;0.62;3.00;2.40;;;30.90;24.20;;;;;;2216473;62;20429;-63
2023/07/14 06:08:50;0.00;0.00;0.62;0.00;0.00;0.62;2.63;2.23;;;31.00;24.30;;;;;;2216298;62;20786;-63
2023/07/14 06:11:36;0.00;0.00;0.62;0.00;0.00;0.62;2.60;2.17;;;31.00;24.30;;;;;;2216167;62;20371;-63
2023/07/14 06:14:21;0.00;0.00;0.62;0.00;0.00;0.62;3.00;2.40;;;30.90;24.30;;;;;;2218665;62;20406;-63
2023/07/14 06:17:08;0.00;0.00;0.62;0.00;0.00;0.62;2.57;2.23;;;30.90;24.30;;;;;;2216049;62;20386;-63
2023/07/14 06:19:53;0.00;0.00;0.62;0.00;0.00;0.62;2.80;2.47;;;30.90;24.30;;;;;;2215968;62;20378;-62
2023/07/14 06:22:38;0.00;0.00;0.62;0.00;0.00;0.62;2.67;2.23;;;30.90;24.30;;;;;;2216438;62;20859;-63
2023/07/14 06:25:23;0.00;0.00;0.62;0.00;0.00;0.62;2.40;1.83;;;30.90;24.30;;;;;;2216765;62;20386;-63
2023/07/14 06:28:10;0.00;0.00;0.62;0.00;0.00;0.62;3.30;2.50;;;31.00;24.30;;;;;;2217481;62;20770;-63
2023/07/14 06:30:56;0.00;0.00;0.62;0.00;0.00;0.62;2.60;2.30;;;30.90;24.30;;;;;;2217270;62;20375;-63
2023/07/14 06:33:41;0.00;0.00;0.62;0.00;0.00;0.62;3.90;2.30;;;30.90;24.30;;;;;;2216692;62;20790;-63
2023/07/14 06:36:26;0.00;0.00;0.62;0.00;0.00;0.62;3.07;2.17;;;30.90;24.30;;;;;;2217094;62;20374;-63
2023/07/14 06:39:12;0.00;0.00;0.62;0.00;0.00;0.62;3.37;2.83;;;30.90;24.30;;;;;;2213580;62;20414;-63
2023/07/14 06:41:56;0.00;0.00;0.62;0.00;0.00;0.62;3.10;2.30;;;30.90;24.30;;;;;;2216536;62;20468;-63
2023/07/14 06:44:45;0.00;0.00;0.62;0.00;0.00;0.62;2.50;2.30;;;30.90;24.30;;;;;;2219209;62;20410;-63
2023/07/14 06:47:30;0.00;0.00;0.62;0.00;0.00;0.62;3.10;2.60;;;30.90;24.30;;;;;;2216995;62;20379;-63
2023/07/14 06:50:15;0.00;0.00;0.62;0.00;0.00;0.62;2.83;2.10;;;30.90;24.30;;;;;;2213919;62;20374;-62
2023/07/14 06:53:01;0.00;0.00;0.62;0.00;0.00;0.62;3.83;2.20;;;30.90;24.40;;;;;;2217401;62;20402;-63
2023/07/14 06:55:46;0.00;0.00;0.62;0.00;0.00;0.62;2.77;1.90;;;30.90;24.30;;;;;;2216048;62;20415;-63
2023/07/14 06:58:31;0.00;0.00;0.62;0.00;0.00;0.62;3.03;2.30;;;30.90;24.40;;;;;;2216635;62;20425;-62
2023/07/14 07:01:20;0.00;0.00;0.62;0.00;0.00;0.62;4.00;2.20;;;31.00;24.40;;;;;;2217360;62;20540;-63
2023/07/14 07:04:06;0.00;0.00;0.62;0.00;0.00;0.62;2.87;1.90;;;30.90;24.40;;;;;;2216627;62;20407;-62
2023/07/14 07:06:52;0.00;0.00;0.62;0.00;0.00;0.62;2.20;1.80;;;30.90;24.40;;;;;;2217407;62;20859;-63
2023/07/14 07:09:37;0.00;0.00;0.62;0.00;0.00;0.62;2.10;1.70;;;30.90;24.40;;;;;;2218366;62;20810;-63
2023/07/14 07:12:22;0.00;0.00;0.62;0.00;0.00;0.62;2.40;2.20;;;30.90;24.40;;;;;;2216936;62;20371;-63
2023/07/14 07:15:08;0.00;0.00;0.62;0.00;0.00;0.62;2.60;2.20;;;30.90;24.40;;;;;;2217018;62;20447;-63
2023/07/14 07:17:55;0.00;0.00;0.62;0.00;0.00;0.62;2.40;2.13;;;31.00;24.50;;;;;;2216120;62;20379;-62
2023/07/14 07:20:43;0.00;0.00;0.62;0.00;0.00;0.62;4.73;1.80;;;31.00;24.50;;;;;;2214025;62;20463;-63
2023/07/14 07:23:28;0.00;0.00;0.62;0.00;0.00;0.62;2.40;2.10;;;31.00;25.00;;;;;;2216912;62;20438;-63
2023/07/14 07:26:13;0.00;0.00;0.62;0.00;0.00;0.62;2.60;2.17;;;31.00;24.50;;;;;;2216513;62;20385;-63
2023/07/14 07:28:57;0.00;0.00;0.62;0.00;0.00;0.62;2.67;2.03;;;31.00;24.50;;;;;;2216805;62;20382;-63
2023/07/14 07:31:42;0.00;0.00;0.62;0.00;0.00;0.62;3.97;2.57;;;31.00;24.50;;;;;;2216679;62;20375;-63
2023/07/14 07:34:28;0.00;0.00;0.62;0.00;0.00;0.62;2.40;1.83;;;31.00;24.50;;;;;;2213758;62;20445;-63
2023/07/14 07:37:13;0.00;0.00;0.62;0.00;0.00;0.62;2.40;2.10;;;31.00;24.50;;;;;;2216817;62;20447;-63
2023/07/14 07:39:59;0.00;0.00;0.62;0.00;0.00;0.62;2.40;2.07;;;31.00;24.50;;;;;;2215818;62;20432;-65
2023/07/14 07:42:46;0.00;0.00;0.62;0.00;0.00;0.62;2.40;2.13;;;31.00;24.50;;;;;;2217032;62;20438;-64
2023/07/14 07:45:31;0.00;0.00;0.62;0.00;0.00;0.62;2.43;1.83;;;31.00;24.50;;;;;;2216723;62;20444;-63
2023/07/14 07:48:16;0.00;0.00;0.62;0.00;0.00;0.62;2.67;2.10;;;31.00;24.50;;;;;;2216119;62;20418;-63
2023/07/14 07:51:03;0.00;0.00;0.62;0.00;0.00;0.62;4.00;2.60;;;31.00;24.60;;;;;;2217066;62;20420;-63
2023/07/14 07:53:48;0.00;0.00;0.62;0.00;0.00;0.62;3.30;2.03;;;31.00;24.60;;;;;;2216427;62;20371;-63
2023/07/14 07:56:36;0.00;0.00;0.62;0.00;0.00;0.62;2.50;2.03;;;31.00;24.60;;;;;;2216766;62;20371;-63
2023/07/14 07:59:20;0.00;0.00;0.62;0.00;0.00;0.62;2.80;1.90;;;31.00;24.60;;;;;;2216540;62;20375;-63
2023/07/14 08:02:07;0.00;0.00;0.62;0.00;0.00;0.62;3.43;2.43;;;31.00;24.60;;;;;;2216266;62;20379;-62
2023/07/14 08:04:52;0.00;0.00;0.62;0.00;0.00;0.62;2.20;1.70;;;31.00;24.60;;;;;;2216730;62;20473;-63
2023/07/14 08:07:38;0.00;0.00;0.62;0.00;0.00;0.62;2.57;2.00;;;31.00;24.60;;;;;;2216884;62;20907;-63
2023/07/14 08:10:23;0.00;0.00;0.62;0.00;0.00;0.62;2.43;1.70;;;31.00;24.70;;;;;;2216349;62;20383;-62
2023/07/14 08:13:09;0.00;0.00;0.62;0.00;0.00;0.62;3.40;2.67;;;31.00;24.70;;;;;;2219146;62;20374;-63
2023/07/14 08:15:54;0.00;0.00;0.62;0.00;0.00;0.62;2.70;2.43;;;31.00;24.70;;;;;;2218821;62;20813;-63
2023/07/14 08:18:38;0.00;0.00;0.62;0.00;0.00;0.62;2.07;1.83;;;31.00;24.70;;;;;;2218842;62;20379;-63
2023/07/14 08:21:23;0.00;0.00;0.62;0.00;0.00;0.62;2.57;2.17;;;31.00;24.70;;;;;;2219161;62;20765;-63
2023/07/14 08:24:10;0.00;0.00;0.62;0.00;0.00;0.62;1.90;1.70;;;31.00;24.70;;;;;;2218673;62;20411;-64
2023/07/14 08:26:55;0.00;0.00;0.62;0.00;0.00;0.62;4.97;2.50;;;31.00;24.70;;;;;;2219420;62;20511;-65
2023/07/14 08:29:39;0.00;0.00;0.62;0.00;0.00;0.62;2.80;1.70;;;31.00;24.70;;;;;;2219294;62;20463;-64
2023/07/14 08:32:24;0.00;0.00;0.62;0.00;0.00;0.62;2.10;1.70;;;31.10;24.80;;;;;;2218680;62;21015;-64
2023/07/14 08:35:09;0.00;0.00;0.62;0.00;0.00;0.62;3.07;2.70;;;31.00;24.70;;;;;;2219032;62;20491;-64
2023/07/14 08:37:54;0.00;0.00;0.62;0.00;0.00;0.62;2.50;2.10;;;31.00;24.80;;;;;;2219062;62;20891;-64
2023/07/14 08:40:48;0.00;0.00;0.62;0.00;0.00;0.62;2.90;2.10;;;31.10;24.80;;;;;;2219108;62;20383;-63
2023/07/14 08:43:50;0.00;0.00;0.62;0.00;0.00;0.62;2.43;1.77;;;31.10;24.80;;;;;;2219302;62;20443;-64
2023/07/14 08:46:48;0.00;0.00;0.62;0.00;0.00;0.62;2.37;2.17;;;31.10;24.80;;;;;;2220940;62;20385;-64
2023/07/14 08:49:43;0.00;0.00;0.62;0.00;0.00;0.62;2.47;2.20;;;31.00;24.80;;;;;;2218948;62;20375;-64
2023/07/14 08:52:32;0.00;0.00;0.62;0.00;0.00;0.62;2.40;2.00;;;31.10;24.80;;;;;;2219289;62;20425;-65
2023/07/14 08:55:22;0.00;0.00;0.62;0.00;0.00;0.62;2.40;2.00;;;31.10;24.90;;;;;;2219104;62;20412;-64
2023/07/14 08:58:19;0.00;0.00;0.62;0.00;0.00;0.62;2.10;1.70;;;31.10;24.90;;;;;;2219883;62;20367;-64
2023/07/14 09:01:10;0.00;0.00;0.62;0.00;0.00;0.62;2.50;2.00;;;31.10;24.90;;;;;;2219018;62;20371;-62
2023/07/14 09:04:03;0.00;0.00;0.62;0.00;0.00;0.62;2.47;2.13;;;31.10;24.90;;;;;;2219564;62;20402;-63
2023/07/14 09:06:48;0.00;0.00;0.62;0.00;0.00;0.62;4.57;2.30;;;31.10;24.90;;;;;;2219417;62;20375;-64
2023/07/14 09:09:39;0.00;0.00;0.62;0.00;0.00;0.62;4.53;2.00;;;31.10;24.90;;;;;;2219087;62;20359;-64
2023/07/14 09:12:31;0.00;0.00;0.62;0.00;0.00;0.62;2.50;1.87;;;31.10;24.90;;;;;;2219853;62;20459;-62
2023/07/14 09:15:23;0.00;0.00;0.62;0.00;0.00;0.62;2.83;1.97;;;31.10;25.00;;;;;;2219437;62;20521;-64
2023/07/14 09:18:31;0.00;0.00;0.62;0.00;0.00;0.62;2.60;1.90;;;31.10;25.00;;;;;;2219137;62;20374;-64
2023/07/14 09:21:23;0.00;0.00;0.62;0.00;0.00;0.62;2.40;2.00;;;31.10;25.00;;;;;;2219665;62;20963;-64
2023/07/14 09:24:20;0.00;0.00;0.62;0.00;0.00;0.62;2.80;2.17;;;31.10;25.00;;;;;;2215691;62;20987;-64
2023/07/14 09:27:11;0.00;0.00;0.62;0.00;0.00;0.62;3.30;2.20;;;31.10;25.00;;;;;;2216614;62;20416;-63
2023/07/14 09:29:59;0.00;0.00;0.62;0.00;0.00;0.62;3.27;2.13;;;31.20;25.10;;;;;;2215610;62;20375;-62
2023/07/14 09:32:49;0.00;0.00;0.62;0.00;0.00;0.62;3.70;2.70;;;31.20;25.10;;;;;;2216356;62;20370;-63
2023/07/14 09:35:34;0.00;0.00;0.62;0.00;0.00;0.62;3.13;2.17;;;31.20;25.10;;;;;;2216748;62;20439;-64
2023/07/14 09:38:24;0.00;0.00;0.62;0.00;0.00;0.62;2.97;2.23;;;31.20;25.10;;;;;;2215540;62;20428;-63
2023/07/14 09:41:14;0.00;0.00;0.62;0.00;0.00;0.62;2.60;2.20;;;31.20;25.20;;;;;;2216555;62;20470;-66
2023/07/14 09:43:59;0.00;0.00;0.62;0.00;0.00;0.62;3.90;2.73;;;31.20;25.30;;;;;;2214046;62;20442;-65
2023/07/14 09:46:48;0.00;0.00;0.62;0.00;0.00;0.62;3.80;2.43;;;31.20;25.50;;;;;;2216320;62;20374;-61
2023/07/14 09:49:40;0.00;0.00;0.62;0.00;0.00;0.62;5.10;2.73;;;31.20;25.30;;;;;;2216273;62;20391;-64
2023/07/14 09:52:28;0.00;0.00;0.62;0.00;0.00;0.62;8.90;2.80;;;31.20;25.10;;;;;;2215781;62;20464;-63
2023/07/14 09:55:13;0.00;0.00;0.62;0.00;0.00;0.62;3.70;2.57;;;31.20;25.20;;;;;;2217031;62;20393;-65
2023/07/14 09:58:00;0.00;0.00;0.62;0.00;0.00;0.62;4.67;2.33;;;31.20;25.20;;;;;;2216371;62;20532;-65
2023/07/14 10:00:49;0.00;0.00;0.62;0.00;0.00;0.62;3.47;2.60;;;31.20;24.90;;;;;;2217197;62;20377;-66
2023/07/14 10:03:42;0.00;0.00;0.62;0.00;0.00;0.62;3.50;2.57;;;31.20;24.80;;;;;;2214480;62;20940;-64
2023/07/14 10:06:30;0.00;0.00;0.62;0.00;0.00;0.62;2.77;2.17;;;31.20;24.80;;;;;;2216844;62;20420;-64
2023/07/14 10:09:16;0.00;0.00;0.62;0.00;0.00;0.62;3.03;2.53;;;31.20;24.60;;;;;;2218219;62;20382;-65
2023/07/14 10:12:05;0.00;0.00;0.62;0.00;0.00;0.62;3.83;2.40;;;31.20;25.00;;;;;;2219063;62;20428;-65
2023/07/14 10:14:49;0.00;0.00;0.62;0.00;0.00;0.62;2.73;2.10;;;31.20;24.40;;;;;;2217025;62;20391;-65
2023/07/14 10:17:40;0.00;0.00;0.62;0.00;0.00;0.62;3.50;2.30;;;31.20;24.30;;;;;;2217161;62;20452;-67
2023/07/14 10:20:27;0.00;0.00;0.62;0.00;0.00;0.62;3.07;2.37;;;31.20;24.10;;;;;;2216657;62;20371;-64
2023/07/14 10:23:16;0.00;0.00;0.62;0.00;0.00;0.62;4.70;2.43;;;31.20;24.00;;;;;;2216606;62;20448;-64
2023/07/14 10:26:06;0.00;0.00;0.62;0.00;0.00;0.62;2.67;2.10;;;31.20;23.90;;;;;;2217302;62;20410;-71
2023/07/14 10:28:51;0.00;0.00;0.62;0.00;0.00;0.62;3.63;2.83;;;31.20;23.80;;;;;;2217151;62;20953;-65
2023/07/14 10:31:42;0.00;0.00;0.62;0.00;0.00;0.62;3.57;2.40;;;31.10;23.80;;;;;;2217711;62;20350;-65
2023/07/14 10:34:49;0.00;0.00;0.62;0.00;0.00;0.62;3.73;2.00;;;31.10;23.80;;;;;;2217101;62;20444;-66
2023/07/14 10:37:40;0.00;0.00;0.62;0.00;0.00;0.62;3.13;2.67;;;31.10;23.70;;;;;;2212917;62;20911;-66
2023/07/14 10:40:29;0.00;0.00;0.62;0.00;0.00;0.62;2.50;2.10;;;31.10;23.90;;;;;;2213528;62;20770;-66
2023/07/14 10:43:21;0.00;0.00;0.62;0.00;0.00;0.62;3.30;2.83;;;31.10;23.90;;;;;;2213153;62;20456;-65
2023/07/14 10:46:13;0.00;0.00;0.62;0.00;0.00;0.62;5.30;2.50;;;31.10;23.90;;;;;;2212973;62;20379;-61
2023/07/14 10:49:05;0.00;0.00;0.62;0.00;0.00;0.62;2.27;2.07;;;31.00;23.60;;;;;;2212264;62;20372;-63
2023/07/14 10:51:53;0.00;0.00;0.62;0.00;0.00;0.62;3.40;2.70;;;31.00;23.40;;;;;;2213071;62;20911;-64
2023/07/14 10:54:48;0.00;0.00;0.62;0.00;0.00;0.62;6.60;2.97;;;31.10;23.60;;;;;;2213110;62;20395;-65
2023/07/14 10:57:44;0.00;0.00;0.62;0.00;0.00;0.62;8.57;2.70;;;31.00;23.60;;;;;;2213278;62;20384;-65
2023/07/14 11:00:36;0.00;0.00;0.62;0.00;0.00;0.62;4.27;2.70;;;31.00;23.60;;;;;;2211978;62;20438;-66
2023/07/14 11:03:28;0.00;0.00;0.62;0.00;0.00;0.62;4.77;2.40;;;31.00;23.50;;;;;;2209926;62;20400;-66